Time;durP1;ratioP1;P1;durP2;ratioP2;P2;SDS_P1;SDS_P2;PMS_P1;PMS_P2;Temp;Humidity;BMP_temperature;BMP_pressure;BME280_temperature;BME280_humidity;BME280_pressure;Samples;Min_cycle;Max_cycle;Signal;HPM_P1;HPM_P2
2022/09/12 00:00:04;;;;;;;;;10.50;10.50;;;;;;;;5002725;28;8985;-79
2022/09/12 00:02:31;;;;;;;;;10.50;10.50;;;;;;;;5001864;28;8831;-80
2022/09/12 00:04:59;;;;;;;;;9.00;9.00;;;;;;;;5000619;28;9017;-79
2022/09/12 00:07:26;;;;;;;;;9.25;6.00;;;;;;;;5000991;28;8882;-78
2022/09/12 00:09:53;;;;;;;;;7.50;7.50;;;;;;;;5002707;28;8997;-78
2022/09/12 00:12:21;;;;;;;;;10.00;10.00;;;;;;;;5002961;28;8973;-79
2022/09/12 00:14:48;;;;;;;;;11.75;11.00;;;;;;;;5001694;28;8879;-79
2022/09/12 00:17:16;;;;;;;;;11.00;10.00;;;;;;;;5002972;28;8874;-79
2022/09/12 00:19:44;;;;;;;;;8.75;8.75;;;;;;;;5002154;28;8898;-79
2022/09/12 00:22:11;;;;;;;;;9.25;8.50;;;;;;;;5002352;28;9699;-79
2022/09/12 00:24:39;;;;;;;;;9.25;7.25;;;;;;;;5002025;28;8878;-79
2022/09/12 00:27:07;;;;;;;;;7.50;6.25;;;;;;;;5002412;28;8869;-79
2022/09/12 00:29:34;;;;;;;;;9.00;9.00;;;;;;;;5002743;28;8892;-79
2022/09/12 00:32:01;;;;;;;;;6.00;6.00;;;;;;;;5001275;28;8815;-79
2022/09/12 00:34:30;;;;;;;;;11.25;10.00;;;;;;;;5002642;28;8874;-79
2022/09/12 00:36:58;;;;;;;;;7.25;7.25;;;;;;;;5000054;28;8862;-80
2022/09/12 00:39:25;;;;;;;;;9.00;9.00;;;;;;;;5001892;28;8874;-79
2022/09/12 00:41:52;;;;;;;;;9.50;9.50;;;;;;;;5001359;28;8893;-80
2022/09/12 00:44:43;;;;;;;;;8.75;7.75;;;;;;;;5003558;28;8882;-80
2022/09/12 00:47:16;;;;;;;;;6.00;6.00;;;;;;;;5001153;28;8843;-79
2022/09/12 00:49:50;;;;;;;;;9.75;8.75;;;;;;;;5005257;28;8996;-79
2022/09/12 00:52:22;;;;;;;;;6.75;6.75;;;;;;;;5006430;28;8879;-79
2022/09/12 00:54:53;;;;;;;;;6.25;6.25;;;;;;;;5003550;28;9637;-78
2022/09/12 00:57:22;;;;;;;;;6.00;6.00;;;;;;;;5037833;28;8910;-78
2022/09/12 00:59:52;;;;;;;;;10.00;6.25;;;;;;;;5003935;28;8858;-79
2022/09/12 01:02:20;;;;;;;;;7.00;7.00;;;;;;;;5005028;28;8810;-78
2022/09/12 01:04:50;;;;;;;;;6.00;6.00;;;;;;;;5006262;28;8909;-78
2022/09/12 01:07:17;;;;;;;;;6.75;6.75;;;;;;;;5004627;28;8863;-79
2022/09/12 01:09:45;;;;;;;;;7.25;7.25;;;;;;;;5005722;28;8912;-79
2022/09/12 01:12:14;;;;;;;;;7.00;7.00;;;;;;;;5001155;28;8894;-78
2022/09/12 01:14:41;;;;;;;;;6.00;6.00;;;;;;;;5005593;28;8900;-79
2022/09/12 01:17:13;;;;;;;;;7.25;7.25;;;;;;;;5005255;28;8859;-79
2022/09/12 01:20:16;;;;;;;;;6.25;6.25;;;;;;;;5005747;28;8867;-79
2022/09/12 01:23:02;;;;;;;;;7.00;7.00;;;;;;;;4996876;28;8905;-79
2022/09/12 01:25:33;;;;;;;;;9.75;8.50;;;;;;;;5004415;28;8918;-79
2022/09/12 01:28:17;;;;;;;;;6.00;6.00;;;;;;;;5003093;28;8883;-79
2022/09/12 01:30:54;;;;;;;;;9.00;9.00;;;;;;;;5005091;28;8815;-79
2022/09/12 01:33:46;;;;;;;;;10.00;10.00;;;;;;;;4999158;28;9661;-79
2022/09/12 01:36:37;;;;;;;;;10.00;8.00;;;;;;;;5000944;28;9045;-79
2022/09/12 01:39:08;;;;;;;;;10.00;7.33;;;;;;;;5002417;28;8958;-79
2022/09/12 01:41:43;;;;;;;;;7.00;7.00;;;;;;;;5002865;28;9872;-79
2022/09/12 01:44:15;;;;;;;;;10.00;9.33;;;;;;;;5004560;28;9048;-79
2022/09/12 01:46:47;;;;;;;;;9.67;9.67;;;;;;;;5003139;28;9028;-79
2022/09/12 01:49:20;;;;;;;;;10.00;10.00;;;;;;;;5005406;28;9052;-79
2022/09/12 01:51:57;;;;;;;;;9.67;9.67;;;;;;;;5004342;28;9113;-80
2022/09/12 01:54:27;;;;;;;;;11.67;11.67;;;;;;;;5001590;28;9041;-81
2022/09/12 01:56:57;;;;;;;;;10.00;10.00;;;;;;;;5004427;28;9127;-80
2022/09/12 01:59:28;;;;;;;;;9.33;9.33;;;;;;;;5004114;28;9114;-83
2022/09/12 02:02:03;;;;;;;;;8.00;8.00;;;;;;;;5005627;28;9169;-83
2022/09/12 02:04:34;;;;;;;;;10.00;10.00;;;;;;;;4996855;28;9116;-82
2022/09/12 02:07:06;;;;;;;;;10.33;10.33;;;;;;;;5004822;28;9137;-80
2022/09/12 02:09:38;;;;;;;;;10.00;10.00;;;;;;;;5004676;28;9133;-80
2022/09/12 02:12:06;;;;;;;;;8.67;8.67;;;;;;;;5003805;28;9219;-80
2022/09/12 02:14:38;;;;;;;;;10.00;10.00;;;;;;;;5004700;28;9087;-79
2022/09/12 02:17:09;;;;;;;;;6.33;6.33;;;;;;;;4993350;28;9031;-79
2022/09/12 02:19:42;;;;;;;;;9.33;9.00;;;;;;;;5004407;28;9117;-79
2022/09/12 02:22:13;;;;;;;;;9.33;9.33;;;;;;;;5003427;28;9109;-78
2022/09/12 02:24:43;;;;;;;;;9.33;9.33;;;;;;;;5001426;28;9050;-80
2022/09/12 02:27:14;;;;;;;;;8.00;8.00;;;;;;;;5000008;28;9024;-78
2022/09/12 02:29:41;;;;;;;;;8.00;8.00;;;;;;;;5003934;28;9056;-78
2022/09/12 02:32:16;;;;;;;;;9.50;8.75;;;;;;;;5004060;28;9121;-80
2022/09/12 02:34:48;;;;;;;;;8.00;8.00;;;;;;;;5002730;28;9652;-79
2022/09/12 02:37:25;;;;;;;;;8.67;6.00;;;;;;;;5001834;28;9972;-79
2022/09/12 02:39:54;;;;;;;;;6.33;6.33;;;;;;;;5004120;28;9074;-80
2022/09/12 02:42:21;;;;;;;;;6.00;6.00;;;;;;;;5003076;28;9248;-80
2022/09/12 02:44:49;;;;;;;;;6.00;6.00;;;;;;;;5004645;28;9037;-79
2022/09/12 02:47:21;;;;;;;;;10.67;9.00;;;;;;;;5002399;28;8946;-79
2022/09/12 02:49:48;;;;;;;;;10.33;9.00;;;;;;;;5003710;28;9144;-80
2022/09/12 02:52:15;;;;;;;;;12.67;12.67;;;;;;;;5001727;28;9317;-78
2022/09/12 02:54:43;;;;;;;;;13.33;9.67;;;;;;;;5002798;28;9102;-79
2022/09/12 02:57:16;;;;;;;;;9.67;9.00;;;;;;;;5003407;28;9216;-79
2022/09/12 02:59:43;;;;;;;;;10.33;10.33;;;;;;;;5035050;28;9117;-79
2022/09/12 03:02:32;;;;;;;;;9.33;9.33;;;;;;;;5002925;28;9172;-79
2022/09/12 03:05:19;;;;;;;;;5.33;5.33;;;;;;;;5002095;28;9205;-79
2022/09/12 03:08:22;;;;;;;;;14.75;14.75;;;;;;;;5001694;28;9402;-79
2022/09/12 03:11:02;;;;;;;;;11.00;11.00;;;;;;;;4993359;28;9494;-79
2022/09/12 03:13:36;;;;;;;;;13.33;11.00;;;;;;;;5000637;28;9441;-79
2022/09/12 03:16:10;;;;;;;;;7.33;7.33;;;;;;;;5003721;28;9319;-80
2022/09/12 03:18:46;;;;;;;;;13.00;10.33;;;;;;;;4991746;28;9284;-79
2022/09/12 03:21:17;;;;;;;;;9.67;9.67;;;;;;;;5002917;28;9368;-79
2022/09/12 03:23:50;;;;;;;;;8.33;6.33;;;;;;;;5003453;28;9354;-79
2022/09/12 03:26:23;;;;;;;;;10.33;9.00;;;;;;;;5002417;28;9099;-79
2022/09/12 03:28:50;;;;;;;;;9.00;8.67;;;;;;;;5000749;28;9274;-79
2022/09/12 03:31:19;;;;;;;;;7.00;7.00;;;;;;;;5001366;28;9064;-79
2022/09/12 03:33:48;;;;;;;;;10.33;8.33;;;;;;;;5002078;28;9280;-79
2022/09/12 03:36:19;;;;;;;;;6.67;6.67;;;;;;;;5002018;28;9305;-81
2022/09/12 03:38:46;;;;;;;;;10.67;8.67;;;;;;;;5002924;28;9286;-79
2022/09/12 03:41:13;;;;;;;;;8.33;8.33;;;;;;;;5002744;28;9862;-80
2022/09/12 03:43:40;;;;;;;;;10.33;10.33;;;;;;;;5002136;28;10178;-79
2022/09/12 03:46:08;;;;;;;;;8.33;8.33;;;;;;;;5003061;28;10086;-78
2022/09/12 03:48:35;;;;;;;;;8.00;8.00;;;;;;;;5001073;28;9217;-79
2022/09/12 03:51:05;;;;;;;;;10.67;10.67;;;;;;;;5002181;28;9288;-79
2022/09/12 03:53:32;;;;;;;;;9.67;9.67;;;;;;;;5001510;28;9362;-79
2022/09/12 03:56:00;;;;;;;;;9.67;7.67;;;;;;;;5003600;28;9278;-79
2022/09/12 03:58:30;;;;;;;;;8.00;5.67;;;;;;;;5002074;28;9514;-79
2022/09/12 04:00:58;;;;;;;;;6.33;6.33;;;;;;;;5000741;28;9287;-79
2022/09/12 04:03:26;;;;;;;;;10.00;7.00;;;;;;;;4999886;28;9273;-78
2022/09/12 04:05:53;;;;;;;;;10.00;8.00;;;;;;;;5001764;28;9376;-79
2022/09/12 04:08:22;;;;;;;;;7.33;7.33;;;;;;;;5002614;28;9442;-79
2022/09/12 04:10:49;;;;;;;;;5.67;5.67;;;;;;;;5001165;28;9272;-79
2022/09/12 04:13:16;;;;;;;;;4.33;4.33;;;;;;;;5002988;28;9344;-81
2022/09/12 04:15:44;;;;;;;;;8.33;5.67;;;;;;;;5002883;28;9370;-79
2022/09/12 04:18:11;;;;;;;;;10.00;10.00;;;;;;;;5004003;28;9330;-78
2022/09/12 04:20:38;;;;;;;;;10.00;8.50;;;;;;;;4986486;28;9414;-78
2022/09/12 04:23:05;;;;;;;;;10.00;8.00;;;;;;;;5003752;28;10278;-79
2022/09/12 04:25:34;;;;;;;;;6.00;6.00;;;;;;;;5005887;28;9433;-79
2022/09/12 04:28:02;;;;;;;;;8.33;8.33;;;;;;;;5005356;28;9247;-78
2022/09/12 04:30:29;;;;;;;;;7.00;7.00;;;;;;;;5005975;28;9352;-79
2022/09/12 04:32:56;;;;;;;;;8.33;8.33;;;;;;;;5005526;28;9379;-78
2022/09/12 04:35:23;;;;;;;;;6.33;6.33;;;;;;;;5005187;28;9224;-78
2022/09/12 04:37:51;;;;;;;;;7.33;7.33;;;;;;;;5006401;28;9416;-78
2022/09/12 04:40:18;;;;;;;;;8.33;8.33;;;;;;;;5005490;28;9316;-79
2022/09/12 04:42:47;;;;;;;;;4.33;4.33;;;;;;;;5005960;28;9394;-78
2022/09/12 04:45:15;;;;;;;;;13.33;9.00;;;;;;;;5004399;28;9468;-79
2022/09/12 04:47:42;;;;;;;;;12.67;9.00;;;;;;;;5005852;28;9462;-79
2022/09/12 04:50:10;;;;;;;;;9.00;9.00;;;;;;;;5004798;28;9411;-79
2022/09/12 04:52:37;;;;;;;;;9.00;9.00;;;;;;;;5003727;28;9346;-79
2022/09/12 04:55:05;;;;;;;;;10.00;8.33;;;;;;;;5005063;28;10258;-79
2022/09/12 04:57:32;;;;;;;;;9.00;9.00;;;;;;;;5005940;28;9203;-79
2022/09/12 05:00:04;;;;;;;;;11.00;9.67;;;;;;;;5005476;28;9308;-79
2022/09/12 05:02:33;;;;;;;;;8.67;8.67;;;;;;;;5002036;28;9975;-80
2022/09/12 05:05:00;;;;;;;;;10.33;10.33;;;;;;;;5005842;28;9531;-80
2022/09/12 05:07:28;;;;;;;;;11.00;9.00;;;;;;;;5001294;28;9434;-76
2022/09/12 05:09:55;;;;;;;;;11.00;8.00;;;;;;;;5004860;28;9364;-77
2022/09/12 05:12:23;;;;;;;;;10.33;9.00;;;;;;;;5005021;28;9361;-78
2022/09/12 05:14:50;;;;;;;;;11.67;10.00;;;;;;;;5003121;28;9417;-78
2022/09/12 05:17:20;;;;;;;;;6.75;6.50;;;;;;;;5004948;28;9348;-77
2022/09/12 05:19:48;;;;;;;;;9.00;9.00;;;;;;;;5002058;28;9488;-77
2022/09/12 05:22:15;;;;;;;;;9.00;9.00;;;;;;;;5004556;28;9348;-77
2022/09/12 05:24:43;;;;;;;;;7.67;7.67;;;;;;;;5001821;28;9453;-76
2022/09/12 05:27:11;;;;;;;;;8.00;5.67;;;;;;;;5001656;28;10112;-76
2022/09/12 05:29:38;;;;;;;;;7.67;7.67;;;;;;;;5002677;28;9343;-77
2022/09/12 05:32:05;;;;;;;;;12.75;10.75;;;;;;;;5004462;28;9288;-78
2022/09/12 05:34:34;;;;;;;;;10.00;9.67;;;;;;;;5004090;28;9480;-77
2022/09/12 05:37:01;;;;;;;;;11.00;10.00;;;;;;;;5001713;28;9335;-77
2022/09/12 05:39:29;;;;;;;;;9.00;9.00;;;;;;;;4999924;28;9816;-80
2022/09/12 05:41:56;;;;;;;;;8.33;6.00;;;;;;;;5000711;28;9508;-78
2022/09/12 05:44:23;;;;;;;;;7.33;7.33;;;;;;;;5003772;28;9183;-78
2022/09/12 05:46:52;;;;;;;;;9.00;8.67;;;;;;;;5009184;28;9463;-84
2022/09/12 05:49:20;;;;;;;;;5.67;5.67;;;;;;;;5005087;28;9399;-82
2022/09/12 05:51:49;;;;;;;;;5.00;5.00;;;;;;;;5004990;28;9259;-74
2022/09/12 05:54:19;;;;;;;;;11.67;10.00;;;;;;;;5000238;28;9305;-72
2022/09/12 05:56:47;;;;;;;;;9.33;8.00;;;;;;;;5004812;28;9339;-73
2022/09/12 05:59:16;;;;;;;;;8.33;8.33;;;;;;;;5003088;28;9396;-73
2022/09/12 06:01:43;;;;;;;;;10.00;10.00;;;;;;;;5003316;28;9358;-70
2022/09/12 06:04:11;;;;;;;;;7.33;7.33;;;;;;;;5003711;28;9434;-72
2022/09/12 06:06:40;;;;;;;;;9.00;9.00;;;;;;;;5005171;28;9345;-72
2022/09/12 06:09:09;;;;;;;;;6.00;6.00;;;;;;;;5003888;28;9315;-74
2022/09/12 06:11:39;;;;;;;;;6.33;6.33;;;;;;;;5004342;28;9360;-75
2022/09/12 06:14:07;;;;;;;;;7.00;7.00;;;;;;;;5005118;28;9342;-75
2022/09/12 06:16:35;;;;;;;;;8.00;8.00;;;;;;;;5003099;28;9313;-75
2022/09/12 06:19:05;;;;;;;;;9.00;7.67;;;;;;;;5002538;28;9281;-75
2022/09/12 06:21:34;;;;;;;;;11.00;9.00;;;;;;;;5003084;28;9298;-74
2022/09/12 06:24:03;;;;;;;;;12.00;12.00;;;;;;;;5001468;28;9397;-76
2022/09/12 06:26:32;;;;;;;;;11.67;10.00;;;;;;;;5002270;28;9260;-77
2022/09/12 06:29:03;;;;;;;;;10.67;9.00;;;;;;;;5003088;28;9195;-78
2022/09/12 06:31:33;;;;;;;;;10.67;10.33;;;;;;;;5001744;28;10022;-76
2022/09/12 06:34:02;;;;;;;;;12.67;10.00;;;;;;;;5002410;28;9276;-75
2022/09/12 06:36:32;;;;;;;;;11.00;10.67;;;;;;;;5003600;28;9053;-77
2022/09/12 06:39:01;;;;;;;;;10.00;10.00;;;;;;;;5001567;28;9109;-76
2022/09/12 06:41:31;;;;;;;;;12.00;12.00;;;;;;;;5002641;28;9785;-76
2022/09/12 06:43:59;;;;;;;;;13.00;12.50;;;;;;;;5002399;28;9643;-74
2022/09/12 06:46:26;;;;;;;;;10.00;10.00;;;;;;;;5002036;28;9650;-72
2022/09/12 06:48:55;;;;;;;;;11.00;8.75;;;;;;;;5000916;28;9217;-75
2022/09/12 06:51:23;;;;;;;;;14.00;12.50;;;;;;;;5000061;28;8905;-74
2022/09/12 06:53:51;;;;;;;;;9.00;9.00;;;;;;;;5002259;28;8875;-73
2022/09/12 06:56:20;;;;;;;;;9.00;9.00;;;;;;;;4997747;28;9016;-73
2022/09/12 06:58:50;;;;;;;;;6.50;6.50;;;;;;;;5000660;28;8877;-70
2022/09/12 07:01:18;;;;;;;;;13.50;10.25;;;;;;;;5010247;28;8804;-72
2022/09/12 07:03:49;;;;;;;;;13.00;13.00;;;;;;;;5021731;28;8926;-72
2022/09/12 07:06:18;;;;;;;;;13.25;11.00;;;;;;;;5022643;28;8879;-72
2022/09/12 07:08:45;;;;;;;;;8.00;7.75;;;;;;;;4999890;28;8887;-73
2022/09/12 07:11:14;;;;;;;;;11.50;9.50;;;;;;;;5022970;28;8852;-73
2022/09/12 07:13:43;;;;;;;;;12.25;10.00;;;;;;;;5020716;28;8879;-72
2022/09/12 07:16:12;;;;;;;;;11.75;8.75;;;;;;;;5020186;28;8887;-73
2022/09/12 07:18:40;;;;;;;;;6.75;6.75;;;;;;;;5021349;28;8872;-73
2022/09/12 07:21:10;;;;;;;;;10.00;10.00;;;;;;;;5022554;28;9646;-72
2022/09/12 07:23:37;;;;;;;;;10.50;10.50;;;;;;;;5021483;28;8888;-73
2022/09/12 07:26:05;;;;;;;;;8.00;8.00;;;;;;;;5021995;28;8884;-74
2022/09/12 07:28:36;;;;;;;;;12.75;10.25;;;;;;;;5021202;28;8880;-73
2022/09/12 07:31:07;;;;;;;;;10.00;10.00;;;;;;;;5015417;28;8805;-73
2022/09/12 07:33:37;;;;;;;;;15.25;12.50;;;;;;;;5022628;28;8880;-73
2022/09/12 07:36:05;;;;;;;;;11.75;11.50;;;;;;;;5022144;28;9010;-73
2022/09/12 07:38:33;;;;;;;;;13.50;11.75;;;;;;;;5017620;28;8894;-77
2022/09/12 07:41:00;;;;;;;;;13.00;10.00;;;;;;;;5019077;28;8881;-74
2022/09/12 07:43:28;;;;;;;;;7.25;7.25;;;;;;;;5020836;28;9767;-74
2022/09/12 07:45:55;;;;;;;;;7.25;5.75;;;;;;;;5022731;28;9025;-73
2022/09/12 07:48:23;;;;;;;;;9.25;8.75;;;;;;;;5020857;28;8902;-73
2022/09/12 07:50:59;;;;;;;;;7.00;7.00;;;;;;;;5023332;28;8872;-74
2022/09/12 07:53:27;;;;;;;;;5.00;5.00;;;;;;;;5015687;28;8868;-73
2022/09/12 07:55:54;;;;;;;;;7.50;7.50;;;;;;;;5025478;28;9034;-73
2022/09/12 07:58:22;;;;;;;;;8.00;7.50;;;;;;;;5021156;28;8919;-73
2022/09/12 08:00:49;;;;;;;;;6.75;6.75;;;;;;;;5024184;28;8912;-73
2022/09/12 08:03:16;;;;;;;;;7.75;7.75;;;;;;;;5025794;28;8979;-75
2022/09/12 08:05:44;;;;;;;;;5.25;5.25;;;;;;;;5015583;28;8869;-73
2022/09/12 08:08:12;;;;;;;;;6.75;5.50;;;;;;;;5021926;28;8914;-73
2022/09/12 08:10:40;;;;;;;;;5.25;5.25;;;;;;;;5022466;28;8872;-73
2022/09/12 08:13:07;;;;;;;;;6.00;6.00;;;;;;;;5023860;28;8941;-73
2022/09/12 08:15:37;;;;;;;;;5.75;5.75;;;;;;;;5023685;28;8902;-74
2022/09/12 08:18:05;;;;;;;;;6.75;6.00;;;;;;;;5022111;28;8919;-74
2022/09/12 08:20:32;;;;;;;;;7.00;6.50;;;;;;;;5021597;28;8844;-74
2022/09/12 08:23:00;;;;;;;;;6.75;6.75;;;;;;;;5003835;28;8869;-73
2022/09/12 08:25:29;;;;;;;;;5.00;4.25;;;;;;;;5023834;28;8856;-74
2022/09/12 08:27:57;;;;;;;;;7.00;7.00;;;;;;;;5022650;28;8891;-74
2022/09/12 08:30:24;;;;;;;;;6.20;6.20;;;;;;;;5023763;28;8819;-73
2022/09/12 08:32:51;;;;;;;;;6.60;5.40;;;;;;;;5021793;28;8873;-73
2022/09/12 08:35:19;;;;;;;;;7.00;7.00;;;;;;;;5023162;28;8906;-74
2022/09/12 08:37:46;;;;;;;;;5.40;5.40;;;;;;;;5023634;28;8895;-74
2022/09/12 08:40:17;;;;;;;;;8.00;6.60;;;;;;;;5022220;28;8898;-74
2022/09/12 08:43:01;;;;;;;;;5.60;5.60;;;;;;;;5006514;28;8906;-74
2022/09/12 08:45:36;;;;;;;;;6.80;6.80;;;;;;;;5020560;28;8879;-74
2022/09/12 08:48:05;;;;;;;;;5.40;5.40;;;;;;;;5023378;28;8872;-74
2022/09/12 08:50:33;;;;;;;;;6.40;6.40;;;;;;;;5020282;28;8974;-73
2022/09/12 08:53:02;;;;;;;;;6.20;6.20;;;;;;;;5013972;28;8871;-75
2022/09/12 08:55:35;;;;;;;;;2.60;2.60;;;;;;;;5018039;28;8922;-74
2022/09/12 08:58:12;;;;;;;;;6.00;6.00;;;;;;;;5015925;28;8912;-74
2022/09/12 09:00:48;;;;;;;;;5.80;5.00;;;;;;;;5023844;28;8816;-74
2022/09/12 09:03:55;;;;;;;;;5.20;5.20;;;;;;;;5018589;28;8878;-77
2022/09/12 09:06:33;;;;;;;;;6.20;6.20;;;;;;;;5018883;28;8910;-74
2022/09/12 09:09:06;;;;;;;;;6.00;4.80;;;;;;;;5021925;28;8852;-74
2022/09/12 09:11:42;;;;;;;;;8.80;6.80;;;;;;;;5020226;28;9603;-77
2022/09/12 09:17:13;;;;;;;;;6.00;6.00;;;;;;;;5021588;28;8837;-73
2022/09/12 09:19:46;;;;;;;;;6.60;4.80;;;;;;;;5023157;28;8856;-76
2022/09/12 09:22:17;;;;;;;;;4.20;4.20;;;;;;;;5024790;28;8860;-74
2022/09/12 09:24:49;;;;;;;;;3.60;3.60;;;;;;;;5019968;28;9583;-75
2022/09/12 09:27:26;;;;;;;;;5.20;5.20;;;;;;;;5024124;28;8868;-74
2022/09/12 09:29:56;;;;;;;;;4.40;4.40;;;;;;;;5006949;28;8914;-75
2022/09/12 09:32:27;;;;;;;;;4.80;4.80;;;;;;;;5018181;28;8855;-74
2022/09/12 09:34:55;;;;;;;;;3.60;3.60;;;;;;;;5022154;28;9635;-74
2022/09/12 09:37:27;;;;;;;;;4.40;4.40;;;;;;;;5018202;28;9000;-74
2022/09/12 09:40:07;;;;;;;;;3.60;3.20;;;;;;;;5024024;28;9090;-74
2022/09/12 09:42:41;;;;;;;;;4.00;4.00;;;;;;;;5018595;28;8876;-73
2022/09/12 09:45:16;;;;;;;;;4.40;4.40;;;;;;;;5027143;28;8884;-73
2022/09/12 09:47:44;;;;;;;;;2.60;2.60;;;;;;;;5013656;28;8896;-74
2022/09/12 09:50:15;;;;;;;;;2.80;2.80;;;;;;;;5023136;28;8876;-74
2022/09/12 09:52:43;;;;;;;;;4.60;4.60;;;;;;;;5025836;28;8856;-74
2022/09/12 09:55:16;;;;;;;;;2.40;2.00;;;;;;;;5022790;28;8876;-72
2022/09/12 09:57:47;;;;;;;;;2.60;2.60;;;;;;;;5023834;28;8868;-74
2022/09/12 10:00:41;;;;;;;;;4.40;4.40;;;;;;;;5023346;28;8959;-77
2022/09/12 10:03:31;;;;;;;;;3.60;3.60;;;;;;;;5002149;28;8888;-73
2022/09/12 10:06:01;;;;;;;;;2.80;2.80;;;;;;;;5024394;28;8880;-74
2022/09/12 10:08:30;;;;;;;;;3.00;3.00;;;;;;;;5021388;28;8886;-74
2022/09/12 10:11:00;;;;;;;;;3.00;1.60;;;;;;;;5005586;28;8880;-73
2022/09/12 10:13:37;;;;;;;;;2.00;2.00;;;;;;;;5021304;28;8890;-77
2022/09/12 10:16:18;;;;;;;;;3.80;3.80;;;;;;;;5012650;28;9653;-77
2022/09/12 10:18:45;;;;;;;;;1.40;1.40;;;;;;;;5023718;28;8861;-74
2022/09/12 10:21:26;;;;;;;;;1.20;1.20;;;;;;;;5022977;28;8869;-76
2022/09/12 10:24:00;;;;;;;;;1.00;1.00;;;;;;;;5022512;28;8869;-77
2022/09/12 10:26:33;;;;;;;;;1.20;1.20;;;;;;;;5015991;28;8885;-76
2022/09/12 10:29:05;;;;;;;;;2.00;0.40;;;;;;;;5021966;28;8876;-75
2022/09/12 10:31:44;;;;;;;;;3.60;2.40;;;;;;;;5020340;28;8869;-76
2022/09/12 10:34:22;;;;;;;;;2.40;2.40;;;;;;;;5018771;28;8890;-75
2022/09/12 10:36:49;;;;;;;;;0.00;0.00;;;;;;;;5014188;28;8950;-75
2022/09/12 10:39:19;;;;;;;;;1.00;1.00;;;;;;;;5022502;28;8860;-74
2022/09/12 10:41:46;;;;;;;;;0.20;0.20;;;;;;;;5023266;28;8869;-75
2022/09/12 10:44:17;;;;;;;;;0.00;0.00;;;;;;;;5009837;28;8888;-75
2022/09/12 10:46:46;;;;;;;;;0.00;0.00;;;;;;;;5022494;28;8896;-75
2022/09/12 10:49:22;;;;;;;;;0.00;0.00;;;;;;;;5022413;28;8893;-76
2022/09/12 10:51:50;;;;;;;;;0.00;0.00;;;;;;;;5023595;28;8962;-76
2022/09/12 10:54:20;;;;;;;;;1.00;0.00;;;;;;;;5022788;28;8982;-76
2022/09/12 10:57:12;;;;;;;;;0.00;0.00;;;;;;;;5023926;28;8895;-76
2022/09/12 11:00:05;;;;;;;;;0.00;0.00;;;;;;;;5022413;28;8896;-74
2022/09/12 11:02:45;;;;;;;;;0.00;0.00;;;;;;;;5008632;28;8837;-73
2022/09/12 11:05:16;;;;;;;;;0.40;0.00;;;;;;;;5019890;28;8864;-74
2022/09/12 11:07:47;;;;;;;;;4.00;1.00;;;;;;;;5020559;28;8882;-74
2022/09/12 11:10:27;;;;;;;;;0.00;0.00;;;;;;;;5017606;28;8902;-77
2022/09/12 11:13:01;;;;;;;;;0.00;0.00;;;;;;;;5015413;28;8883;-77
2022/09/12 11:15:42;;;;;;;;;0.00;0.00;;;;;;;;5023782;28;8930;-75
2022/09/12 11:18:19;;;;;;;;;0.00;0.00;;;;;;;;5021280;28;9295;-76
2022/09/12 11:21:03;;;;;;;;;0.00;0.00;;;;;;;;5022932;28;8887;-76
2022/09/12 11:24:07;;;;;;;;;0.00;0.00;;;;;;;;5015102;28;8929;-74
2022/09/12 11:26:52;;;;;;;;;0.80;0.00;;;;;;;;5022531;28;8891;-76
2022/09/12 11:29:33;;;;;;;;;0.00;0.00;;;;;;;;5021447;28;8983;-76
2022/09/12 11:32:39;;;;;;;;;0.00;0.00;;;;;;;;5023048;28;8852;-73
2022/09/12 11:35:17;;;;;;;;;0.00;0.00;;;;;;;;4991627;28;8880;-74
2022/09/12 11:38:08;;;;;;;;;0.00;0.00;;;;;;;;5022383;28;8910;-74
2022/09/12 11:40:43;;;;;;;;;0.00;0.00;;;;;;;;5022448;28;8941;-73
2022/09/12 11:43:22;;;;;;;;;0.00;0.00;;;;;;;;5021053;28;9019;-74
2022/09/12 11:45:50;;;;;;;;;0.00;0.00;;;;;;;;5022605;28;9761;-76
2022/09/12 11:48:24;;;;;;;;;0.00;0.00;;;;;;;;5015252;28;8868;-75
2022/09/12 11:50:53;;;;;;;;;0.00;0.00;;;;;;;;5020487;28;8847;-75
2022/09/12 11:53:26;;;;;;;;;0.20;0.20;;;;;;;;5003496;28;8910;-75
2022/09/12 11:55:57;;;;;;;;;0.00;0.00;;;;;;;;5021370;28;8912;-76
2022/09/12 11:58:28;;;;;;;;;0.00;0.00;;;;;;;;5018679;28;8887;-75
2022/09/12 12:00:57;;;;;;;;;0.00;0.00;;;;;;;;5016176;28;8898;-76
2022/09/12 12:03:31;;;;;;;;;0.00;0.00;;;;;;;;5022310;28;8867;-77
2022/09/12 12:06:03;;;;;;;;;0.00;0.00;;;;;;;;5022568;28;8877;-76
2022/09/12 12:08:32;;;;;;;;;0.00;0.00;;;;;;;;5020154;28;8989;-77
2022/09/12 12:11:01;;;;;;;;;0.00;0.00;;;;;;;;5018983;28;8860;-76
2022/09/12 12:13:31;;;;;;;;;0.00;0.00;;;;;;;;5020486;28;8877;-76
2022/09/12 12:16:02;;;;;;;;;0.40;0.00;;;;;;;;5000785;28;8985;-75
2022/09/12 12:18:31;;;;;;;;;0.00;0.00;;;;;;;;5016413;28;8872;-76
2022/09/12 12:21:28;;;;;;;;;0.00;0.00;;;;;;;;5021982;28;8876;-76
2022/09/12 12:24:14;;;;;;;;;0.00;0.00;;;;;;;;5021991;28;8877;-76
2022/09/12 12:26:46;;;;;;;;;0.00;0.00;;;;;;;;5019917;28;9694;-78
2022/09/12 12:29:40;;;;;;;;;0.00;0.00;;;;;;;;5021517;28;8999;-77
2022/09/12 12:32:24;;;;;;;;;0.00;0.00;;;;;;;;5016641;28;8805;-75
2022/09/12 12:35:20;;;;;;;;;2.00;0.00;;;;;;;;5019740;28;8893;-77
2022/09/12 12:37:54;;;;;;;;;0.00;0.00;;;;;;;;5022501;28;8885;-76
2022/09/12 12:40:25;;;;;;;;;0.00;0.00;;;;;;;;5023391;28;8880;-77
2022/09/12 12:43:30;;;;;;;;;0.80;0.00;;;;;;;;5024936;28;8869;-80
2022/09/12 12:46:10;;;;;;;;;0.00;0.00;;;;;;;;5024917;28;8884;-78
2022/09/12 12:49:09;;;;;;;;;0.00;0.00;;;;;;;;5020406;28;8881;-76
2022/09/12 12:51:55;;;;;;;;;0.00;0.00;;;;;;;;5015457;28;9715;-76
2022/09/12 12:54:52;;;;;;;;;0.00;0.00;;;;;;;;5019862;28;8863;-81
2022/09/12 12:57:26;;;;;;;;;1.00;0.00;;;;;;;;5000859;28;8879;-80
2022/09/12 12:59:55;;;;;;;;;1.60;0.60;;;;;;;;5025716;28;8892;-82
2022/09/12 13:02:26;;;;;;;;;0.00;0.00;;;;;;;;5023780;28;8828;-81
2022/09/12 13:04:54;;;;;;;;;0.00;0.00;;;;;;;;5024260;28;8876;-84
2022/09/12 13:07:26;;;;;;;;;0.00;0.00;;;;;;;;5025372;28;8888;-80
2022/09/12 13:09:55;;;;;;;;;1.00;0.00;;;;;;;;5024235;28;8860;-87
2022/09/12 13:12:24;;;;;;;;;0.00;0.00;;;;;;;;5009279;28;8861;-86
2022/09/12 13:14:54;;;;;;;;;0.00;0.00;;;;;;;;5025558;28;8868;-84
2022/09/12 13:17:25;;;;;;;;;0.00;0.00;;;;;;;;5026071;28;9046;-83
2022/09/12 13:20:02;;;;;;;;;0.00;0.00;;;;;;;;5026247;28;8845;-85
2022/09/12 13:22:40;;;;;;;;;0.00;0.00;;;;;;;;5020547;28;8875;-82
2022/09/12 13:25:22;;;;;;;;;0.00;0.00;;;;;;;;5026610;28;8873;-84
2022/09/12 13:28:06;;;;;;;;;0.00;0.00;;;;;;;;5024181;28;8899;-83
2022/09/12 13:30:35;;;;;;;;;0.00;0.00;;;;;;;;5023946;28;8808;-84
2022/09/12 13:33:15;;;;;;;;;0.00;0.00;;;;;;;;5014269;28;9730;-82
2022/09/12 13:35:53;;;;;;;;;0.00;0.00;;;;;;;;5024891;28;8872;-85
2022/09/12 13:38:27;;;;;;;;;0.00;0.00;;;;;;;;5025196;28;8876;-80
2022/09/12 13:41:12;;;;;;;;;0.00;0.00;;;;;;;;5023543;28;8861;-82
2022/09/12 13:43:42;;;;;;;;;0.00;0.00;;;;;;;;5025739;28;8995;-85
2022/09/12 13:46:13;;;;;;;;;0.00;0.00;;;;;;;;5024372;28;8887;-83
2022/09/12 13:48:41;;;;;;;;;0.00;0.00;;;;;;;;5023974;28;8871;-80
2022/09/12 13:51:19;;;;;;;;;0.00;0.00;;;;;;;;5020746;28;8992;-79
2022/09/12 13:53:49;;;;;;;;;0.00;0.00;;;;;;;;5023171;28;9013;-77
2022/09/12 13:56:19;;;;;;;;;0.80;0.00;;;;;;;;5022944;28;9651;-77
2022/09/12 13:58:55;;;;;;;;;0.00;0.00;;;;;;;;5024291;28;8911;-79
2022/09/12 14:01:23;;;;;;;;;0.00;0.00;;;;;;;;5023317;28;8821;-79
2022/09/12 14:06:48;;;;;;;;;0.00;0.00;;;;;;;;5019046;28;8841;-82
2022/09/12 14:09:19;;;;;;;;;0.00;0.00;;;;;;;;5022531;28;8876;-84
2022/09/12 14:11:50;;;;;;;;;0.00;0.00;;;;;;;;5023753;28;8853;-83
2022/09/12 14:14:28;;;;;;;;;0.00;0.00;;;;;;;;5023983;28;8930;-83
2022/09/12 14:16:55;;;;;;;;;0.00;0.00;;;;;;;;5016576;28;8934;-86
2022/09/12 14:19:24;;;;;;;;;0.00;0.00;;;;;;;;5022081;28;8900;-80
2022/09/12 14:21:53;;;;;;;;;0.00;0.00;;;;;;;;5023794;28;8888;-87
2022/09/12 14:24:23;;;;;;;;;0.00;0.00;;;;;;;;5023483;28;8903;-81
2022/09/12 14:26:54;;;;;;;;;0.00;0.00;;;;;;;;5024306;28;9030;-83
2022/09/12 14:29:23;;;;;;;;;0.00;0.00;;;;;;;;5015534;28;8833;-84
2022/09/12 14:32:02;;;;;;;;;0.00;0.00;;;;;;;;5024128;28;8844;-80
2022/09/12 14:34:30;;;;;;;;;0.00;0.00;;;;;;;;5023348;28;8856;-82
2022/09/12 14:36:58;;;;;;;;;0.00;0.00;;;;;;;;5022425;28;9015;-79
2022/09/12 14:39:30;;;;;;;;;0.00;0.00;;;;;;;;5023470;28;8877;-79
2022/09/12 14:42:04;;;;;;;;;0.00;0.00;;;;;;;;5022170;28;8892;-81
2022/09/12 14:44:33;;;;;;;;;0.00;0.00;;;;;;;;5023349;28;8930;-82
2022/09/12 14:47:12;;;;;;;;;0.00;0.00;;;;;;;;5022442;28;8903;-83
2022/09/12 14:49:40;;;;;;;;;0.00;0.00;;;;;;;;5019363;28;9641;-79
2022/09/12 14:52:15;;;;;;;;;0.00;0.00;;;;;;;;5020724;28;8879;-79
2022/09/12 14:54:43;;;;;;;;;1.00;0.00;;;;;;;;5020186;28;8896;-78
2022/09/12 14:57:38;;;;;;;;;0.00;0.00;;;;;;;;5020499;28;8998;-79
2022/09/12 15:00:13;;;;;;;;;0.00;0.00;;;;;;;;5007521;28;9634;-78
2022/09/12 15:02:43;;;;;;;;;0.00;0.00;;;;;;;;5020357;28;8886;-79
2022/09/12 15:05:19;;;;;;;;;1.00;1.00;;;;;;;;5021714;28;9006;-80
2022/09/12 15:07:54;;;;;;;;;0.00;0.00;;;;;;;;5017173;28;8880;-79
2022/09/12 15:10:24;;;;;;;;;0.80;0.00;;;;;;;;5020555;28;8871;-80
2022/09/12 15:13:15;;;;;;;;;0.60;0.00;;;;;;;;5021615;28;8880;-80
2022/09/12 15:15:44;;;;;;;;;0.00;0.00;;;;;;;;5015538;28;8872;-80
2022/09/12 15:18:12;;;;;;;;;0.00;0.00;;;;;;;;5023157;28;8837;-80
2022/09/12 15:20:41;;;;;;;;;0.00;0.00;;;;;;;;5018772;28;10147;-80
2022/09/12 15:23:29;;;;;;;;;0.00;0.00;;;;;;;;5022779;28;8892;-79
2022/09/12 15:25:56;;;;;;;;;0.00;0.00;;;;;;;;5020825;28;9606;-79